Time;durP1;ratioP1;P1;durP2;ratioP2;P2;SDS_P1;SDS_P2;PMS_P1;PMS_P2;Temp;Humidity;BMP_temperature;BMP_pressure;BME280_temperature;BME280_humidity;BME280_pressure;Samples;Min_cycle;Max_cycle;Signal;HPM_P1;HPM_P2
2022/12/03 00:00:59;;;;;;;33.80;15.10;;;3.00;99.90;;;;;;6184380;23;20146;-45
2022/12/03 00:03:24;;;;;;;32.67;16.50;;;3.00;99.90;;;;;;6179233;23;20159;-45
2022/12/03 00:05:50;;;;;;;28.40;14.70;;;3.00;99.90;;;;;;6184450;23;20156;-45
2022/12/03 00:08:15;;;;;;;28.63;15.10;;;3.00;99.90;;;;;;6179553;23;20383;-46
2022/12/03 00:10:41;;;;;;;32.30;14.97;;;3.00;1.20;;;;;;6184196;23;20143;-45
2022/12/03 00:13:06;;;;;;;33.60;16.63;;;3.00;1.00;;;;;;6178809;23;20170;-45
2022/12/03 00:15:32;;;;;;;33.20;16.53;;;3.00;1.00;;;;;;6184544;23;20147;-45
2022/12/03 00:17:58;;;;;;;29.67;15.10;;;2.90;1.00;;;;;;6180571;23;20475;-45
2022/12/03 00:20:23;;;;;;;32.30;14.97;;;2.90;1.00;;;;;;6184002;23;20689;-45
2022/12/03 00:22:50;;;;;;;32.10;14.17;;;2.90;1.00;;;;;;6179692;23;20515;-45
2022/12/03 00:25:15;;;;;;;37.10;14.10;;;2.90;1.00;;;;;;6184289;23;20387;-45
2022/12/03 00:27:41;;;;;;;31.17;14.27;;;2.90;1.00;;;;;;6179893;23;20393;-45
2022/12/03 00:30:08;;;;;;;31.47;13.70;;;2.90;1.00;;;;;;6184118;23;20151;-44
2022/12/03 00:32:33;;;;;;;31.40;14.83;;;2.80;52.00;;;;;;6179665;23;20225;-45
2022/12/03 00:34:59;;;;;;;31.13;15.27;;;2.80;99.90;;;;;;6184180;23;21121;-45
2022/12/03 00:37:24;;;;;;;30.50;14.60;;;2.80;99.90;;;;;;6178963;23;20150;-45
2022/12/03 00:39:50;;;;;;;34.60;15.00;;;2.80;1.00;;;;;;6184024;23;20626;-45
2022/12/03 00:42:15;;;;;;;29.40;14.70;;;2.70;1.00;;;;;;6179908;23;20213;-45
2022/12/03 00:44:41;;;;;;;29.20;14.13;;;2.70;99.90;;;;;;6182446;23;20159;-44
2022/12/03 00:47:07;;;;;;;29.50;14.30;;;2.80;99.90;;;;;;6179941;23;20167;-45
2022/12/03 00:49:32;;;;;;;31.77;14.17;;;2.70;46.70;;;;;;6184027;23;20355;-45
2022/12/03 00:51:58;;;;;;;32.10;15.00;;;2.70;99.90;;;;;;6178705;23;20147;-45
2022/12/03 00:54:23;;;;;;;28.47;14.00;;;2.70;99.90;;;;;;6183568;23;20205;-45
2022/12/03 00:56:49;;;;;;;29.67;13.90;;;2.70;99.90;;;;;;6180357;23;20154;-44
2022/12/03 00:59:14;;;;;;;29.30;14.40;;;2.60;99.90;;;;;;6183789;23;20528;-45
2022/12/03 01:01:40;;;;;;;27.23;13.60;;;2.60;1.00;;;;;;6179272;23;20170;-44
2022/12/03 01:04:05;;;;;;;36.27;18.67;;;2.60;1.00;;;;;;6183737;23;20201;-45
2022/12/03 01:06:31;;;;;;;30.20;15.93;;;2.60;1.00;;;;;;6178850;23;20163;-45
2022/12/03 01:08:57;;;;;;;35.60;15.47;;;2.60;1.00;;;;;;6183436;23;20175;-45
2022/12/03 01:11:37;;;;;;;30.20;14.70;;;2.50;99.90;;;;;;6180196;23;20151;-46
2022/12/03 01:14:05;;;;;;;34.20;14.40;;;2.50;99.90;;;;;;6183742;23;20144;-45
2022/12/03 01:16:30;;;;;;;30.13;14.30;;;2.60;1.00;;;;;;6179252;23;20390;-45
2022/12/03 01:18:56;;;;;;;30.77;14.57;;;2.60;99.90;;;;;;6183525;23;20431;-44
2022/12/03 01:21:21;;;;;;;37.20;16.10;;;2.50;99.90;;;;;;6179147;23;20143;-45
2022/12/03 01:23:47;;;;;;;30.70;15.00;;;2.50;1.00;;;;;;6183757;23;20624;-45
2022/12/03 01:26:12;;;;;;;32.97;15.10;;;2.50;99.90;;;;;;6178878;23;20163;-45
2022/12/03 01:28:40;;;;;;;33.13;15.47;;;2.50;99.90;;;;;;6183355;23;20171;-45
2022/12/03 01:33:51;;;;;;;33.30;14.87;;;2.50;99.90;;;;;;6181487;23;20366;-45
2022/12/03 01:36:16;;;;;;;37.70;16.90;;;2.40;78.00;;;;;;6180967;23;20371;-46
2022/12/03 01:38:42;;;;;;;31.63;15.63;;;2.40;1.00;;;;;;6180637;23;20756;-45
2022/12/03 01:41:07;;;;;;;30.63;14.77;;;2.40;1.00;;;;;;6181698;23;20509;-45
2022/12/03 01:43:33;;;;;;;36.60;15.93;;;2.40;99.90;;;;;;6179292;23;20571;-45
2022/12/03 01:45:59;;;;;;;32.93;15.20;;;2.40;99.90;;;;;;6181696;23;20167;-45
2022/12/03 01:48:25;;;;;;;40.17;16.03;;;2.30;17.10;;;;;;6180775;23;20426;-44
2022/12/03 01:50:50;;;;;;;33.53;16.10;;;2.30;99.90;;;;;;6181549;23;20230;-45
2022/12/03 01:53:17;;;;;;;40.10;18.20;;;2.30;1.00;;;;;;6180114;23;20554;-46
2022/12/03 01:55:44;;;;;;;37.33;15.43;;;2.30;99.90;;;;;;6181837;23;20155;-44
2022/12/03 01:58:15;;;;;;;33.73;15.70;;;2.30;1.00;;;;;;6179999;23;20810;-44
2022/12/03 02:00:40;;;;;;;32.80;15.57;;;2.20;1.00;;;;;;6182449;23;20390;-44
2022/12/03 02:03:19;;;;;;;36.90;16.67;;;2.20;1.00;;;;;;6179422;23;20430;-45
2022/12/03 02:05:45;;;;;;;39.23;15.97;;;2.10;46.30;;;;;;6181215;23;20197;-45
2022/12/03 02:08:27;;;;;;;41.50;16.37;;;2.10;99.90;;;;;;6179481;23;20422;-44
2022/12/03 02:10:53;;;;;;;40.37;16.20;;;2.10;1.00;;;;;;6183591;23;20146;-44
2022/12/03 02:13:19;;;;;;;36.23;16.87;;;2.00;1.00;;;;;;6178373;23;20383;-43
2022/12/03 02:15:45;;;;;;;38.63;16.50;;;2.00;1.00;;;;;;6183307;23;20143;-43
2022/12/03 02:18:10;;;;;;;43.63;16.10;;;2.00;1.00;;;;;;6178750;23;20430;-43
2022/12/03 02:20:56;;;;;;;48.73;18.20;;;2.00;99.90;;;;;;6182819;23;20159;-43
2022/12/03 02:23:43;;;;;;;35.43;15.80;;;2.00;99.90;;;;;;6178494;23;20226;-43
2022/12/03 02:26:09;;;;;;;36.10;16.10;;;2.00;1.00;;;;;;6183068;23;20374;-43
2022/12/03 02:28:35;;;;;;;34.93;15.70;;;2.00;99.90;;;;;;6178611;23;20414;-43
2022/12/03 02:31:00;;;;;;;34.20;15.80;;;1.90;99.90;;;;;;6183047;23;20386;-45
2022/12/03 02:33:26;;;;;;;39.73;16.43;;;1.90;1.00;;;;;;6177761;23;20363;-49
2022/12/03 02:35:52;;;;;;;41.40;16.30;;;2.00;1.00;;;;;;6182907;23;20421;-43
2022/12/03 02:38:20;;;;;;;39.73;15.93;;;1.90;99.90;;;;;;6177150;23;20166;-43
2022/12/03 02:40:48;;;;;;;36.50;16.07;;;1.90;1.00;;;;;;6182820;23;20202;-42
2022/12/03 02:43:16;;;;;;;39.30;17.17;;;1.90;1.00;;;;;;6178733;23;20449;-43
2022/12/03 02:45:45;;;;;;;36.00;15.10;;;1.90;1.00;;;;;;6182878;23;20441;-43
2022/12/03 02:48:13;;;;;;;33.60;15.90;;;1.80;1.00;;;;;;6182664;23;20433;-43
2022/12/03 02:50:42;;;;;;;38.00;16.57;;;1.80;1.00;;;;;;6183129;23;20890;-43
2022/12/03 02:53:23;;;;;;;39.23;16.73;;;1.80;1.00;;;;;;6183590;23;20688;-43
2022/12/03 02:55:50;;;;;;;37.97;16.03;;;1.80;1.00;;;;;;6182797;23;20816;-43
2022/12/03 02:58:16;;;;;;;38.20;16.20;;;1.80;1.00;;;;;;6183440;23;20878;-43
2022/12/03 03:00:43;;;;;;;38.97;16.20;;;1.90;1.00;;;;;;6183439;23;20370;-43
2022/12/03 03:03:09;;;;;;;40.77;16.57;;;1.80;99.90;;;;;;6182512;23;20493;-43
2022/12/03 03:05:38;;;;;;;34.17;15.30;;;1.80;1.00;;;;;;6183178;23;20445;-43
2022/12/03 03:08:05;;;;;;;35.07;16.13;;;1.70;1.00;;;;;;6182548;23;20721;-43
2022/12/03 03:10:33;;;;;;;40.37;17.80;;;1.70;16.60;;;;;;6182866;23;20837;-43
2022/12/03 03:13:00;;;;;;;39.60;16.53;;;1.80;1.00;;;;;;6183016;23;20363;-43
2022/12/03 03:15:26;;;;;;;35.30;15.47;;;1.70;44.80;;;;;;6181140;23;20828;-53
2022/12/03 03:17:51;;;;;;;39.10;16.77;;;1.70;99.90;;;;;;6182767;23;20398;-43
2022/12/03 03:20:18;;;;;;;32.40;14.70;;;1.70;99.90;;;;;;6182964;23;20169;-44
2022/12/03 03:22:43;;;;;;;37.80;17.13;;;1.70;99.90;;;;;;6182876;23;20581;-43
2022/12/03 03:25:15;;;;;;;39.53;17.10;;;1.70;99.90;;;;;;6182945;23;20473;-43
2022/12/03 03:27:41;;;;;;;34.50;15.73;;;1.70;99.90;;;;;;6182905;23;20152;-49
2022/12/03 03:30:08;;;;;;;39.60;15.90;;;1.60;99.90;;;;;;6184476;23;20430;-43
2022/12/03 03:32:34;;;;;;;41.97;16.00;;;1.60;1.00;;;;;;6184665;23;20234;-43
2022/12/03 03:35:00;;;;;;;38.80;15.33;;;1.70;1.00;;;;;;6184798;23;20398;-43
2022/12/03 03:37:27;;;;;;;36.80;16.27;;;1.60;1.00;;;;;;6184541;23;20390;-43
2022/12/03 03:39:52;;;;;;;37.77;16.07;;;1.60;1.00;;;;;;6184193;23;20434;-43
2022/12/03 03:42:18;;;;;;;37.67;15.70;;;1.60;1.00;;;;;;6184489;23;20382;-44
2022/12/03 03:44:44;;;;;;;36.73;16.30;;;1.60;1.00;;;;;;6184905;23;20578;-43
2022/12/03 03:47:10;;;;;;;37.70;16.77;;;1.60;1.00;;;;;;6185177;23;20213;-43
2022/12/03 03:49:36;;;;;;;39.30;16.33;;;1.60;1.00;;;;;;6185098;23;20175;-43
2022/12/03 03:52:02;;;;;;;39.60;16.83;;;1.60;1.00;;;;;;6177441;23;20389;-43
2022/12/03 03:54:28;;;;;;;38.90;16.53;;;1.60;1.00;;;;;;6184425;23;20155;-43
2022/12/03 03:56:54;;;;;;;37.50;15.97;;;1.60;1.00;;;;;;6182914;23;20695;-43
2022/12/03 03:59:20;;;;;;;39.03;16.50;;;1.60;1.00;;;;;;6184262;23;20228;-43
2022/12/03 04:01:45;;;;;;;45.40;17.17;;;1.60;1.00;;;;;;6183429;23;20159;-43
2022/12/03 04:04:23;;;;;;;40.67;15.80;;;1.60;1.00;;;;;;6184741;23;20162;-43
2022/12/03 04:06:48;;;;;;;43.60;16.93;;;1.60;1.00;;;;;;6184436;23;20173;-43
2022/12/03 04:09:14;;;;;;;42.93;17.13;;;1.60;1.00;;;;;;6184361;23;20415;-43
2022/12/03 04:14:25;;;;;;;33.40;16.13;;;1.50;99.90;;;;;;6184418;23;20450;-43
2022/12/03 04:16:50;;;;;;;38.60;16.53;;;1.50;99.90;;;;;;6184042;23;20865;-43
2022/12/03 04:19:16;;;;;;;37.73;16.53;;;1.60;99.90;;;;;;6176451;23;20147;-43
2022/12/03 04:24:26;;;;;;;34.90;17.17;;;1.50;99.90;;;;;;6183992;23;20154;-43
2022/12/03 04:29:35;;;;;;;35.33;15.20;;;1.50;1.00;;;;;;6183977;23;20546;-43
2022/12/03 04:37:29;;;;;;;39.10;16.37;;;1.50;1.00;;;;;;6183858;23;20358;-43
2022/12/03 04:39:55;;;;;;;33.80;15.90;;;1.50;99.90;;;;;;6183886;23;20446;-43
2022/12/03 04:42:21;;;;;;;40.50;16.37;;;1.60;99.90;;;;;;6184221;23;20147;-43
2022/12/03 04:44:46;;;;;;;39.90;14.97;;;1.50;96.40;;;;;;6184394;23;20189;-44
2022/12/03 04:47:17;;;;;;;47.47;17.40;;;1.60;99.90;;;;;;6184134;23;20378;-43
2022/12/03 04:49:48;;;;;;;41.57;17.20;;;1.60;1.00;;;;;;6183923;23;20179;-43
2022/12/03 04:52:16;;;;;;;41.37;17.10;;;1.60;99.90;;;;;;6184401;23;20371;-43
2022/12/03 04:54:42;;;;;;;38.90;17.70;;;1.50;67.10;;;;;;6183789;23;20390;-43
2022/12/03 04:57:09;;;;;;;45.03;19.37;;;1.50;99.90;;;;;;6183668;23;20811;-43
2022/12/03 04:59:35;;;;;;;49.07;19.43;;;1.50;99.90;;;;;;6183644;23;20382;-43
2022/12/03 05:02:02;;;;;;;38.27;17.50;;;1.50;1.00;;;;;;6183818;23;20809;-43
2022/12/03 05:04:27;;;;;;;36.73;16.73;;;1.50;1.00;;;;;;6183116;23;20371;-43
2022/12/03 05:06:53;;;;;;;43.40;16.93;;;1.50;1.00;;;;;;6183646;23;20397;-43
2022/12/03 05:09:19;;;;;;;50.20;19.73;;;1.50;1.00;;;;;;6183708;23;20610;-43
2022/12/03 05:11:44;;;;;;;39.03;17.47;;;1.50;99.90;;;;;;6184079;23;20150;-43
2022/12/03 05:14:10;;;;;;;42.80;16.60;;;1.50;99.90;;;;;;6183425;23;20155;-42
2022/12/03 05:16:36;;;;;;;43.43;17.27;;;1.50;99.90;;;;;;6184030;23;20190;-42
2022/12/03 05:19:03;;;;;;;47.67;18.50;;;1.40;99.90;;;;;;6183703;23;20378;-43
2022/12/03 05:21:28;;;;;;;45.40;17.13;;;1.40;99.90;;;;;;6183653;23;20435;-43
2022/12/03 05:23:54;;;;;;;36.80;16.07;;;1.50;1.00;;;;;;6183640;23;20371;-43
2022/12/03 05:26:20;;;;;;;41.93;17.57;;;1.40;1.00;;;;;;6183654;23;20570;-43
2022/12/03 05:28:45;;;;;;;41.00;17.77;;;1.40;1.00;;;;;;6183330;23;20210;-43
2022/12/03 05:31:11;;;;;;;35.60;16.83;;;1.40;1.00;;;;;;6183937;23;20817;-43
2022/12/03 05:33:37;;;;;;;44.90;17.73;;;1.40;1.00;;;;;;6183588;23;20156;-44
2022/12/03 05:36:03;;;;;;;42.37;16.87;;;1.40;89.90;;;;;;6183634;23;20144;-43
2022/12/03 05:38:28;;;;;;;40.00;17.20;;;1.30;99.90;;;;;;6183737;23;20188;-43
2022/12/03 05:40:54;;;;;;;42.50;16.70;;;1.30;99.90;;;;;;6183519;23;20163;-43
2022/12/03 05:43:19;;;;;;;41.33;17.27;;;1.40;1.00;;;;;;6175956;23;20454;-44
2022/12/03 05:45:45;;;;;;;42.00;16.30;;;1.40;1.00;;;;;;6183194;23;20238;-43
2022/12/03 05:48:13;;;;;;;40.73;16.57;;;1.40;1.00;;;;;;6183172;23;20175;-43
2022/12/03 05:50:42;;;;;;;40.10;16.80;;;1.30;1.00;;;;;;6183165;23;20139;-43
2022/12/03 05:53:08;;;;;;;39.50;17.20;;;1.30;1.00;;;;;;6183252;23;20752;-44
2022/12/03 05:55:33;;;;;;;43.60;17.30;;;1.20;99.90;;;;;;6183313;23;20370;-43
2022/12/03 05:57:59;;;;;;;40.70;16.97;;;1.20;99.90;;;;;;6183561;23;20581;-44
2022/12/03 06:00:30;;;;;;;42.10;17.37;;;1.20;99.90;;;;;;6183268;23;20162;-48
2022/12/03 06:02:55;;;;;;;40.67;16.13;;;1.20;99.90;;;;;;6183274;23;20167;-43
2022/12/03 06:05:22;;;;;;;47.73;19.43;;;1.20;99.90;;;;;;6183494;23;20371;-43
2022/12/03 06:07:49;;;;;;;49.43;19.40;;;1.20;1.00;;;;;;6183372;23;20179;-43
2022/12/03 06:10:18;;;;;;;41.33;17.13;;;1.20;1.00;;;;;;6183329;23;20769;-43
2022/12/03 06:12:44;;;;;;;40.20;16.47;;;1.20;1.00;;;;;;6183127;23;20413;-44
2022/12/03 06:15:11;;;;;;;43.73;17.80;;;1.20;1.00;;;;;;6183372;23;20358;-43
2022/12/03 06:17:36;;;;;;;44.23;16.53;;;1.20;99.90;;;;;;6183114;23;20186;-44
2022/12/03 06:20:02;;;;;;;37.60;17.13;;;1.10;99.90;;;;;;6183044;23;20375;-43
2022/12/03 06:22:28;;;;;;;37.13;18.00;;;1.10;99.90;;;;;;6183238;23;20175;-43
2022/12/03 06:24:54;;;;;;;46.60;18.20;;;1.10;99.90;;;;;;6183178;23;20416;-43
2022/12/03 06:27:19;;;;;;;40.30;16.03;;;1.10;99.90;;;;;;6183287;23;20282;-43
2022/12/03 06:29:45;;;;;;;39.40;17.10;;;1.10;99.90;;;;;;6183088;23;20190;-43
2022/12/03 06:32:11;;;;;;;41.87;16.83;;;1.00;99.90;;;;;;6183233;23;20571;-43
2022/12/03 06:34:36;;;;;;;40.73;16.70;;;0.90;99.90;;;;;;6183286;23;20190;-43
2022/12/03 06:37:02;;;;;;;42.80;17.87;;;0.90;1.00;;;;;;6183327;23;20194;-43
2022/12/03 06:39:27;;;;;;;43.50;19.10;;;0.90;65.10;;;;;;6182880;23;20201;-47
2022/12/03 06:41:53;;;;;;;40.53;19.93;;;0.90;99.90;;;;;;6182918;23;20174;-43
2022/12/03 06:44:19;;;;;;;39.87;17.20;;;1.00;1.00;;;;;;6183194;23;20269;-43
2022/12/03 06:46:44;;;;;;;49.57;18.87;;;1.00;1.00;;;;;;6183118;23;20262;-44
2022/12/03 06:49:10;;;;;;;43.47;17.07;;;1.00;1.00;;;;;;6183276;23;20179;-43
2022/12/03 06:51:36;;;;;;;41.10;18.03;;;1.00;1.00;;;;;;6183301;23;20163;-43
2022/12/03 06:54:03;;;;;;;39.83;17.87;;;1.00;1.00;;;;;;6182910;23;20608;-43
2022/12/03 06:56:28;;;;;;;41.37;17.53;;;1.00;99.90;;;;;;6182750;23;20366;-43
2022/12/03 06:58:54;;;;;;;43.27;16.87;;;0.90;99.90;;;;;;6182979;23;20461;-43
2022/12/03 07:01:20;;;;;;;38.30;17.97;;;1.00;99.90;;;;;;6156556;23;20221;-43
2022/12/03 07:03:46;;;;;;;43.07;17.93;;;0.90;1.00;;;;;;6185438;23;20183;-43
2022/12/03 07:06:11;;;;;;;39.87;17.60;;;0.90;1.00;;;;;;6184611;23;20397;-43
2022/12/03 07:08:37;;;;;;;40.83;16.83;;;0.90;1.00;;;;;;6185000;23;20629;-43
2022/12/03 07:11:03;;;;;;;40.07;17.90;;;0.90;1.00;;;;;;6184701;23;20386;-43
2022/12/03 07:13:29;;;;;;;39.40;16.70;;;0.90;99.90;;;;;;6185295;23;20148;-43
2022/12/03 07:15:54;;;;;;;41.70;17.60;;;0.90;99.90;;;;;;6184948;23;20630;-43
2022/12/03 07:18:20;;;;;;;46.17;17.80;;;0.80;99.90;;;;;;6184786;23;20474;-43
2022/12/03 07:20:45;;;;;;;40.90;17.77;;;0.80;99.90;;;;;;6184542;23;20163;-43
2022/12/03 07:23:11;;;;;;;41.63;17.77;;;0.70;99.90;;;;;;6184795;23;20147;-43
2022/12/03 07:25:36;;;;;;;43.93;17.80;;;0.70;1.00;;;;;;6184615;23;20154;-43
2022/12/03 07:28:02;;;;;;;41.07;18.13;;;0.80;1.00;;;;;;6185133;23;20174;-43
2022/12/03 07:30:28;;;;;;;38.30;17.00;;;0.80;1.00;;;;;;6181508;23;20175;-43
2022/12/03 07:32:54;;;;;;;38.13;17.33;;;0.80;1.00;;;;;;6180432;23;20202;-43
2022/12/03 07:35:19;;;;;;;39.37;17.80;;;0.70;99.90;;;;;;6184724;23;20414;-44
2022/12/03 07:37:45;;;;;;;44.20;19.47;;;0.80;99.90;;;;;;6184518;23;20162;-43
2022/12/03 07:40:11;;;;;;;44.23;19.10;;;0.70;99.90;;;;;;6184275;23;20266;-43
2022/12/03 07:42:37;;;;;;;44.27;18.90;;;0.70;1.00;;;;;;6184413;23;20504;-44
2022/12/03 07:45:03;;;;;;;45.00;18.50;;;0.70;1.00;;;;;;6184819;23;20421;-43
2022/12/03 07:47:29;;;;;;;43.30;18.90;;;0.70;1.00;;;;;;6184595;23;20143;-43
2022/12/03 07:49:54;;;;;;;45.00;19.27;;;0.70;1.00;;;;;;6184432;23;20433;-43
2022/12/03 07:52:20;;;;;;;43.03;18.40;;;0.80;1.00;;;;;;6184731;23;20140;-43
2022/12/03 07:54:45;;;;;;;47.30;19.20;;;0.80;99.90;;;;;;6185105;23;20213;-43
2022/12/03 07:57:11;;;;;;;46.47;19.73;;;0.80;99.90;;;;;;6184385;23;20763;-43
2022/12/03 07:59:36;;;;;;;44.43;18.97;;;0.80;99.90;;;;;;6184567;23;20205;-43
2022/12/03 08:02:02;;;;;;;43.80;18.33;;;0.80;99.90;;;;;;6184445;23;20174;-43
2022/12/03 08:04:28;;;;;;;45.40;19.03;;;0.80;1.00;;;;;;6184557;23;20147;-43
2022/12/03 08:07:08;;;;;;;45.37;18.63;;;0.90;1.00;;;;;;6118979;23;20183;-47
2022/12/03 08:09:34;;;;;;;48.67;18.67;;;0.90;99.90;;;;;;6184601;23;20723;-43
2022/12/03 08:12:05;;;;;;;46.20;18.80;;;0.90;99.90;;;;;;6184156;23;20233;-43
2022/12/03 08:14:30;;;;;;;46.10;19.30;;;0.90;99.90;;;;;;6184153;23;20194;-43
2022/12/03 08:16:56;;;;;;;42.40;18.03;;;0.90;1.00;;;;;;6184390;23;20354;-43
2022/12/03 08:19:21;;;;;;;49.33;20.17;;;0.90;1.00;;;;;;6184379;23;20167;-43
2022/12/03 08:21:47;;;;;;;46.03;18.77;;;0.90;1.00;;;;;;6184129;23;20154;-44
2022/12/03 08:24:19;;;;;;;42.37;19.13;;;0.90;1.00;;;;;;6183947;23;20165;-44
2022/12/03 08:26:47;;;;;;;46.73;19.67;;;1.00;99.90;;;;;;6184309;23;20230;-43
2022/12/03 08:29:18;;;;;;;44.17;19.67;;;1.00;99.90;;;;;;6184183;23;20883;-43
2022/12/03 08:31:50;;;;;;;47.93;19.10;;;1.00;99.90;;;;;;6184340;23;20420;-43
2022/12/03 08:34:22;;;;;;;40.80;17.93;;;1.00;26.90;;;;;;6184475;23;20371;-43
2022/12/03 08:37:00;;;;;;;46.47;18.87;;;1.10;95.10;;;;;;6184317;23;20379;-43
2022/12/03 08:39:36;;;;;;;51.23;20.43;;;1.20;99.90;;;;;;6184378;23;20438;-43
2022/12/03 08:42:40;;;;;;;42.73;17.97;;;1.20;1.00;;;;;;6183900;23;20369;-44
2022/12/03 08:45:27;;;;;;;43.20;18.03;;;1.40;1.00;;;;;;6184146;23;20461;-43
2022/12/03 08:48:18;;;;;;;49.30;20.23;;;1.50;99.90;;;;;;6184052;23;20378;-43
2022/12/03 08:50:44;;;;;;;47.93;17.77;;;1.60;1.00;;;;;;6183789;23;20386;-43
2022/12/03 08:53:13;;;;;;;45.47;18.20;;;1.70;1.00;;;;;;6183963;23;20723;-42
2022/12/03 08:55:46;;;;;;;44.90;19.10;;;1.80;99.90;;;;;;6176434;23;20363;-43
2022/12/03 08:58:21;;;;;;;42.30;19.07;;;1.80;1.00;;;;;;6184996;23;20363;-44
2022/12/03 09:00:48;;;;;;;46.13;19.30;;;1.90;3.60;;;;;;6183943;23;20452;-43
2022/12/03 09:03:17;;;;;;;45.23;18.17;;;2.00;1.00;;;;;;6185951;23;20365;-44
2022/12/03 09:05:43;;;;;;;45.30;19.27;;;2.00;1.00;;;;;;6179843;23;20378;-44
2022/12/03 09:08:08;;;;;;;42.40;17.80;;;2.00;99.90;;;;;;6180832;23;20370;-45
2022/12/03 09:10:34;;;;;;;49.77;19.83;;;2.10;99.90;;;;;;6182510;23;20920;-44
2022/12/03 09:12:59;;;;;;;41.10;17.73;;;2.10;99.90;;;;;;6182019;23;20678;-44
2022/12/03 09:15:25;;;;;;;40.60;18.43;;;2.10;99.90;;;;;;6180381;23;20155;-50
2022/12/03 09:17:50;;;;;;;46.17;18.90;;;2.20;55.00;;;;;;6181025;23;20251;-44
2022/12/03 09:20:16;;;;;;;47.33;19.20;;;2.30;95.40;;;;;;6180718;23;20144;-44
2022/12/03 09:22:41;;;;;;;52.00;19.50;;;2.50;30.10;;;;;;6181407;23;20202;-44
2022/12/03 09:25:07;;;;;;;42.40;18.40;;;2.60;1.00;;;;;;6181544;23;20463;-44
2022/12/03 09:27:33;;;;;;;40.40;17.63;;;2.80;99.90;;;;;;6180424;23;20156;-44
2022/12/03 09:29:58;;;;;;;41.70;18.33;;;2.80;1.00;;;;;;6180698;23;20179;-44
2022/12/03 09:32:24;;;;;;;43.27;18.30;;;2.90;99.90;;;;;;6179930;23;20163;-44
2022/12/03 09:34:50;;;;;;;44.67;20.73;;;3.00;1.00;;;;;;6181057;23;20529;-44
2022/12/03 09:37:15;;;;;;;38.90;18.43;;;3.10;1.00;;;;;;6180520;23;20203;-44
2022/12/03 09:39:41;;;;;;;41.60;18.73;;;3.10;99.90;;;;;;6181294;23;20202;-44
2022/12/03 09:42:08;;;;;;;38.90;17.47;;;3.20;99.90;;;;;;6181481;23;20568;-44
2022/12/03 09:44:34;;;;;;;44.03;18.30;;;3.10;99.90;;;;;;6180682;23;20204;-45
2022/12/03 09:47:01;;;;;;;36.53;16.50;;;3.10;1.00;;;;;;6180346;23;20394;-45
2022/12/03 09:49:29;;;;;;;44.60;17.10;;;3.00;1.00;;;;;;6180743;23;20426;-44
2022/12/03 09:51:56;;;;;;;40.80;17.10;;;3.00;1.00;;;;;;6181513;23;20398;-44
2022/12/03 09:54:25;;;;;;;43.23;18.43;;;2.90;1.00;;;;;;6181553;23;20957;-44
2022/12/03 09:56:52;;;;;;;43.93;17.33;;;2.90;1.00;;;;;;6183538;23;21069;-44
2022/12/03 09:59:28;;;;;;;38.90;17.63;;;2.90;1.00;;;;;;6183452;23;20441;-44
2022/12/03 10:01:54;;;;;;;40.23;17.00;;;2.90;99.90;;;;;;6183367;23;20374;-44
2022/12/03 10:04:20;;;;;;;41.53;17.10;;;2.90;1.00;;;;;;6183282;23;20865;-44
2022/12/03 10:06:46;;;;;;;38.97;17.77;;;2.90;1.00;;;;;;6183576;23;20147;-44
2022/12/03 10:09:13;;;;;;;37.93;17.40;;;2.80;99.90;;;;;;6183230;23;20530;-44
2022/12/03 10:11:39;;;;;;;40.23;17.20;;;2.70;1.00;;;;;;6183302;23;20805;-44
2022/12/03 10:14:05;;;;;;;38.33;16.30;;;2.70;1.00;;;;;;6183428;23;20393;-44
2022/12/03 10:16:30;;;;;;;42.40;16.70;;;2.70;1.00;;;;;;6175613;23;20159;-44
2022/12/03 10:18:59;;;;;;;47.90;21.97;;;2.80;1.00;;;;;;6183177;23;20196;-44
2022/12/03 10:21:35;;;;;;;39.73;16.20;;;2.90;1.00;;;;;;6183134;23;20222;-42
2022/12/03 10:24:17;;;;;;;36.40;15.53;;;2.90;1.00;;;;;;6183084;23;20385;-45
2022/12/03 10:26:44;;;;;;;34.30;16.47;;;2.90;99.90;;;;;;6183711;23;20457;-44
2022/12/03 10:29:16;;;;;;;38.30;16.00;;;2.90;99.90;;;;;;6183022;23;20465;-45
2022/12/03 10:31:42;;;;;;;38.07;15.23;;;2.80;99.90;;;;;;6149268;23;20409;-45
2022/12/03 10:34:08;;;;;;;37.03;17.07;;;2.80;1.00;;;;;;6183331;23;20386;-44
2022/12/03 10:36:34;;;;;;;41.47;15.83;;;2.90;1.00;;;;;;6183984;23;20158;-42
2022/12/03 10:39:15;;;;;;;31.47;15.50;;;2.90;1.00;;;;;;6186751;23;20437;-42
2022/12/03 10:41:42;;;;;;;33.20;15.20;;;3.00;1.00;;;;;;6160678;23;20233;-46
2022/12/03 10:44:19;;;;;;;30.47;13.73;;;3.10;99.90;;;;;;6186671;23;20424;-44
2022/12/03 10:47:08;;;;;;;31.80;15.90;;;3.10;99.90;;;;;;6186363;23;20674;-42
2022/12/03 10:49:33;;;;;;;24.77;12.93;;;3.30;99.90;;;;;;6186479;23;20928;-43
2022/12/03 10:51:59;;;;;;;37.97;15.00;;;3.30;91.80;;;;;;6187172;23;20402;-42
2022/12/03 10:54:27;;;;;;;32.40;15.00;;;3.20;65.30;;;;;;6186534;23;20146;-42
2022/12/03 10:56:52;;;;;;;36.60;17.10;;;3.20;1.00;;;;;;6186460;23;20230;-43
2022/12/03 10:59:30;;;;;;;40.90;16.90;;;3.20;1.00;;;;;;6186496;23;20405;-44
2022/12/03 11:01:56;;;;;;;32.70;14.83;;;3.20;99.90;;;;;;6186330;23;20151;-43
2022/12/03 11:04:33;;;;;;;32.60;14.57;;;3.20;99.90;;;;;;6186730;23;20414;-42
2022/12/03 11:07:02;;;;;;;34.37;15.37;;;3.20;99.90;;;;;;6186505;23;20367;-43
2022/12/03 11:09:31;;;;;;;39.10;15.70;;;3.10;99.90;;;;;;6186228;23;20494;-42
2022/12/03 11:12:03;;;;;;;28.30;14.77;;;2.90;1.00;;;;;;6186474;23;20378;-43
2022/12/03 11:14:49;;;;;;;36.00;15.27;;;2.80;1.00;;;;;;6186518;23;20388;-43
2022/12/03 11:17:34;;;;;;;33.20;15.27;;;2.70;1.00;;;;;;6186069;23;20529;-43
2022/12/03 11:20:00;;;;;;;42.60;17.77;;;2.70;1.00;;;;;;6186756;23;20390;-43
2022/12/03 11:22:36;;;;;;;34.77;15.87;;;2.60;1.00;;;;;;6186612;23;20371;-42
2022/12/03 11:25:24;;;;;;;34.23;15.10;;;2.60;1.00;;;;;;6187462;23;20154;-42
2022/12/03 11:28:11;;;;;;;38.87;16.30;;;2.70;1.00;;;;;;6186706;23;20370;-43
2022/12/03 11:30:49;;;;;;;31.53;14.00;;;2.60;1.00;;;;;;6186693;23;20377;-45
2022/12/03 11:33:23;;;;;;;32.67;15.00;;;2.60;1.00;;;;;;6186158;23;20370;-42
2022/12/03 11:36:04;;;;;;;35.80;14.60;;;2.60;1.00;;;;;;6186637;23;21142;-43
2022/12/03 11:38:35;;;;;;;33.90;17.57;;;2.60;1.00;;;;;;6186638;23;20821;-43
2022/12/03 11:41:18;;;;;;;35.10;14.80;;;2.50;1.00;;;;;;6186614;23;20374;-44
2022/12/03 11:43:54;;;;;;;36.03;16.70;;;2.50;1.00;;;;;;6186424;23;20826;-42
2022/12/03 11:46:28;;;;;;;36.73;14.90;;;2.60;1.00;;;;;;6186156;23;20358;-44
2022/12/03 11:48:56;;;;;;;29.90;14.00;;;2.60;1.00;;;;;;6184706;23;20735;-43
2022/12/03 11:51:25;;;;;;;33.17;15.40;;;2.50;1.00;;;;;;6184751;23;20363;-42
2022/12/03 11:53:54;;;;;;;33.00;15.63;;;2.50;1.00;;;;;;6185250;23;20369;-44
2022/12/03 11:56:23;;;;;;;36.27;15.00;;;2.50;1.00;;;;;;6184909;23;20457;-45
2022/12/03 11:58:58;;;;;;;34.33;15.10;;;2.40;1.00;;;;;;6184849;23;20836;-45
2022/12/03 12:01:38;;;;;;;36.37;16.47;;;2.40;1.00;;;;;;6184891;23;20366;-43
2022/12/03 12:04:05;;;;;;;38.13;15.60;;;2.50;1.00;;;;;;6185079;23;20366;-45
2022/12/03 12:06:44;;;;;;;37.20;16.00;;;2.50;1.00;;;;;;6184606;23;20379;-43
2022/12/03 12:09:10;;;;;;;40.23;16.30;;;2.50;1.00;;;;;;6184463;23;20461;-42
2022/12/03 12:11:40;;;;;;;43.40;16.33;;;2.50;1.00;;;;;;6184836;23;20383;-43
2022/12/03 12:14:11;;;;;;;33.00;14.73;;;2.60;1.00;;;;;;6178573;23;20389;-46
2022/12/03 12:16:44;;;;;;;36.33;14.97;;;2.60;1.00;;;;;;6184775;23;20390;-43
2022/12/03 12:19:36;;;;;;;36.93;15.20;;;2.70;1.00;;;;;;6184323;23;20394;-43
2022/12/03 12:22:11;;;;;;;36.80;15.57;;;2.70;1.00;;;;;;6185169;23;20378;-42
2022/12/03 12:24:41;;;;;;;32.43;15.50;;;2.70;1.00;;;;;;6184604;23;20366;-45
2022/12/03 12:27:09;;;;;;;38.57;15.67;;;2.60;1.00;;;;;;6184369;23;20357;-43
2022/12/03 12:29:36;;;;;;;36.00;15.97;;;2.60;1.00;;;;;;6184403;23;20715;-43
2022/12/03 12:32:14;;;;;;;34.20;15.87;;;2.60;1.00;;;;;;6184909;23;20370;-43
2022/12/03 12:34:52;;;;;;;40.40;17.60;;;2.60;1.00;;;;;;6184390;23;20817;-42
2022/12/03 12:37:28;;;;;;;34.27;14.50;;;2.70;1.00;;;;;;6184697;23;20389;-43
2022/12/03 12:39:56;;;;;;;42.37;17.40;;;2.60;1.00;;;;;;6184223;23;20464;-43
2022/12/03 12:42:37;;;;;;;33.27;15.10;;;2.60;1.00;;;;;;6184362;23;20410;-48
2022/12/03 12:45:15;;;;;;;36.17;14.57;;;2.60;1.00;;;;;;6184528;23;20386;-43
2022/12/03 12:48:00;;;;;;;31.90;15.10;;;2.50;1.00;;;;;;6184454;23;20371;-45
2022/12/03 12:50:25;;;;;;;35.87;17.07;;;2.50;1.00;;;;;;6183969;23;20460;-43
2022/12/03 12:52:54;;;;;;;35.20;15.10;;;2.40;1.00;;;;;;6184462;23;20453;-43
2022/12/03 12:55:21;;;;;;;36.47;16.20;;;2.40;1.00;;;;;;6184291;23;20156;-44
2022/12/03 12:57:47;;;;;;;36.17;16.67;;;2.40;1.00;;;;;;6184057;23;20386;-42
2022/12/03 13:00:20;;;;;;;32.47;15.60;;;2.50;1.00;;;;;;6151005;23;20921;-44
2022/12/03 13:03:01;;;;;;;35.57;15.40;;;2.50;1.00;;;;;;6184307;23;20377;-42
2022/12/03 13:05:39;;;;;;;35.10;15.73;;;2.50;1.00;;;;;;6183795;23;20857;-42